sensor_id;sensor_type;location;lat;lon;timestamp;P1;durP1;ratioP1;P2;durP2;ratioP2
52730;SDS011;38624;53.242;6.974;2023-04-24T00:01:27;6.65;;;5.40;;
52730;SDS011;38624;53.242;6.974;2023-04-24T00:03:54;6.30;;;4.45;;
52730;SDS011;38624;53.242;6.974;2023-04-24T00:06:25;4.97;;;4.32;;
52730;SDS011;38624;53.242;6.974;2023-04-24T00:08:58;6.95;;;3.80;;
52730;SDS011;38624;53.242;6.974;2023-04-24T00:11:27;5.72;;;4.18;;
52730;SDS011;38624;53.242;6.974;2023-04-24T00:13:53;4.90;;;3.55;;
52730;SDS011;38624;53.242;6.974;2023-04-24T00:16:20;6.32;;;3.35;;
52730;SDS011;38624;53.242;6.974;2023-04-24T00:18:46;3.00;;;2.40;;
52730;SDS011;38624;53.242;6.974;2023-04-24T00:21:13;2.72;;;1.88;;
52730;SDS011;38624;53.242;6.974;2023-04-24T00:23:42;2.40;;;1.35;;
52730;SDS011;38624;53.242;6.974;2023-04-24T00:26:09;1.77;;;1.10;;
52730;SDS011;38624;53.242;6.974;2023-04-24T00:28:35;1.83;;;0.93;;
52730;SDS011;38624;53.242;6.974;2023-04-24T00:31:01;1.80;;;0.70;;
52730;SDS011;38624;53.242;6.974;2023-04-24T00:33:27;0.70;;;0.70;;
52730;SDS011;38624;53.242;6.974;2023-04-24T00:35:52;0.80;;;0.70;;
52730;SDS011;38624;53.242;6.974;2023-04-24T00:38:18;0.60;;;0.60;;
52730;SDS011;38624;53.242;6.974;2023-04-24T00:40:44;2.17;;;0.90;;
52730;SDS011;38624;53.242;6.974;2023-04-24T00:43:10;1.33;;;0.80;;
52730;SDS011;38624;53.242;6.974;2023-04-24T00:45:36;2.13;;;0.70;;
52730;SDS011;38624;53.242;6.974;2023-04-24T00:48:02;2.20;;;0.73;;
52730;SDS011;38624;53.242;6.974;2023-04-24T00:50:29;0.80;;;0.80;;
52730;SDS011;38624;53.242;6.974;2023-04-24T00:52:55;1.13;;;0.90;;
52730;SDS011;38624;53.242;6.974;2023-04-24T00:55:22;3.08;;;0.90;;
52730;SDS011;38624;53.242;6.974;2023-04-24T00:57:47;1.10;;;1.00;;
52730;SDS011;38624;53.242;6.974;2023-04-24T01:00:15;1.42;;;1.10;;
52730;SDS011;38624;53.242;6.974;2023-04-24T01:02:41;1.15;;;1.05;;
52730;SDS011;38624;53.242;6.974;2023-04-24T01:05:10;2.60;;;1.20;;
52730;SDS011;38624;53.242;6.974;2023-04-24T01:07:36;1.80;;;1.40;;
52730;SDS011;38624;53.242;6.974;2023-04-24T01:10:03;2.40;;;1.30;;
52730;SDS011;38624;53.242;6.974;2023-04-24T01:12:30;2.05;;;1.40;;
52730;SDS011;38624;53.242;6.974;2023-04-24T01:14:56;3.37;;;1.40;;
52730;SDS011;38624;53.242;6.974;2023-04-24T01:17:22;2.15;;;1.50;;
52730;SDS011;38624;53.242;6.974;2023-04-24T01:19:47;1.87;;;1.50;;
52730;SDS011;38624;53.242;6.974;2023-04-24T01:22:14;2.23;;;1.40;;
52730;SDS011;38624;53.242;6.974;2023-04-24T01:24:40;1.83;;;1.55;;
52730;SDS011;38624;53.242;6.974;2023-04-24T01:27:06;2.20;;;1.80;;
52730;SDS011;38624;53.242;6.974;2023-04-24T01:29:34;3.38;;;1.77;;
52730;SDS011;38624;53.242;6.974;2023-04-24T01:32:00;2.33;;;1.70;;
52730;SDS011;38624;53.242;6.974;2023-04-24T01:34:26;2.08;;;1.88;;
52730;SDS011;38624;53.242;6.974;2023-04-24T01:36:52;2.78;;;2.03;;
52730;SDS011;38624;53.242;6.974;2023-04-24T01:39:17;2.15;;;1.95;;
52730;SDS011;38624;53.242;6.974;2023-04-24T01:41:45;2.70;;;2.25;;
52730;SDS011;38624;53.242;6.974;2023-04-24T01:44:11;2.67;;;2.47;;
52730;SDS011;38624;53.242;6.974;2023-04-24T01:46:37;2.95;;;2.65;;
52730;SDS011;38624;53.242;6.974;2023-04-24T01:49:03;4.68;;;2.63;;
52730;SDS011;38624;53.242;6.974;2023-04-24T01:51:29;2.60;;;2.40;;
52730;SDS011;38624;53.242;6.974;2023-04-24T01:53:55;3.00;;;2.53;;
52730;SDS011;38624;53.242;6.974;2023-04-24T01:56:21;3.17;;;2.80;;
52730;SDS011;38624;53.242;6.974;2023-04-24T01:58:48;3.00;;;2.70;;
52730;SDS011;38624;53.242;6.974;2023-04-24T02:01:19;3.05;;;2.67;;
52730;SDS011;38624;53.242;6.974;2023-04-24T02:03:45;3.33;;;2.90;;
52730;SDS011;38624;53.242;6.974;2023-04-24T02:06:11;3.05;;;2.75;;
52730;SDS011;38624;53.242;6.974;2023-04-24T02:08:36;2.88;;;2.58;;
52730;SDS011;38624;53.242;6.974;2023-04-24T02:11:02;6.43;;;3.20;;
52730;SDS011;38624;53.242;6.974;2023-04-24T02:13:28;4.47;;;3.10;;
52730;SDS011;38624;53.242;6.974;2023-04-24T02:15:53;3.80;;;3.30;;
52730;SDS011;38624;53.242;6.974;2023-04-24T02:18:19;4.07;;;2.97;;
52730;SDS011;38624;53.242;6.974;2023-04-24T02:20:45;6.93;;;2.90;;
52730;SDS011;38624;53.242;6.974;2023-04-24T02:23:11;4.03;;;3.15;;
52730;SDS011;38624;53.242;6.974;2023-04-24T02:25:38;3.58;;;3.25;;
52730;SDS011;38624;53.242;6.974;2023-04-24T02:28:04;4.13;;;3.20;;
52730;SDS011;38624;53.242;6.974;2023-04-24T02:30:29;3.80;;;3.40;;
52730;SDS011;38624;53.242;6.974;2023-04-24T02:32:55;4.60;;;3.38;;
52730;SDS011;38624;53.242;6.974;2023-04-24T02:35:21;3.92;;;3.45;;
52730;SDS011;38624;53.242;6.974;2023-04-24T02:37:47;5.10;;;3.50;;
52730;SDS011;38624;53.242;6.974;2023-04-24T02:40:12;4.50;;;3.67;;
52730;SDS011;38624;53.242;6.974;2023-04-24T02:42:38;6.47;;;4.15;;
52730;SDS011;38624;53.242;6.974;2023-04-24T02:45:04;4.68;;;4.03;;
52730;SDS011;38624;53.242;6.974;2023-04-24T02:47:30;5.70;;;4.75;;
52730;SDS011;38624;53.242;6.974;2023-04-24T02:49:56;5.80;;;5.10;;
52730;SDS011;38624;53.242;6.974;2023-04-24T02:52:22;5.72;;;5.20;;
52730;SDS011;38624;53.242;6.974;2023-04-24T02:54:47;6.72;;;5.55;;
52730;SDS011;38624;53.242;6.974;2023-04-24T02:57:13;6.20;;;5.60;;
52730;SDS011;38624;53.242;6.974;2023-04-24T02:59:39;7.22;;;6.00;;
52730;SDS011;38624;53.242;6.974;2023-04-24T03:02:04;7.22;;;5.82;;
52730;SDS011;38624;53.242;6.974;2023-04-24T03:04:30;11.23;;;6.40;;
52730;SDS011;38624;53.242;6.974;2023-04-24T03:06:57;7.70;;;6.55;;
52730;SDS011;38624;53.242;6.974;2023-04-24T03:09:23;8.80;;;6.78;;
52730;SDS011;38624;53.242;6.974;2023-04-24T03:11:49;9.93;;;6.67;;
52730;SDS011;38624;53.242;6.974;2023-04-24T03:14:15;7.73;;;6.33;;
52730;SDS011;38624;53.242;6.974;2023-04-24T03:16:41;7.47;;;6.68;;
52730;SDS011;38624;53.242;6.974;2023-04-24T03:19:07;7.90;;;6.90;;
52730;SDS011;38624;53.242;6.974;2023-04-24T03:21:32;7.55;;;6.85;;
52730;SDS011;38624;53.242;6.974;2023-04-24T03:23:58;7.88;;;6.95;;
52730;SDS011;38624;53.242;6.974;2023-04-24T03:26:24;7.95;;;7.13;;
52730;SDS011;38624;53.242;6.974;2023-04-24T03:28:50;8.90;;;7.25;;
52730;SDS011;38624;53.242;6.974;2023-04-24T03:31:15;8.07;;;7.13;;
52730;SDS011;38624;53.242;6.974;2023-04-24T03:33:41;8.60;;;7.70;;
52730;SDS011;38624;53.242;6.974;2023-04-24T03:36:07;10.00;;;7.80;;
52730;SDS011;38624;53.242;6.974;2023-04-24T03:38:33;8.25;;;7.45;;
52730;SDS011;38624;53.242;6.974;2023-04-24T03:40:59;9.45;;;7.50;;
52730;SDS011;38624;53.242;6.974;2023-04-24T03:43:24;11.27;;;7.55;;
52730;SDS011;38624;53.242;6.974;2023-04-24T03:45:52;8.40;;;7.60;;
52730;SDS011;38624;53.242;6.974;2023-04-24T03:48:18;8.68;;;7.82;;
52730;SDS011;38624;53.242;6.974;2023-04-24T03:50:43;8.20;;;7.40;;
52730;SDS011;38624;53.242;6.974;2023-04-24T03:53:09;9.13;;;7.25;;
52730;SDS011;38624;53.242;6.974;2023-04-24T03:55:35;8.75;;;7.95;;
52730;SDS011;38624;53.242;6.974;2023-04-24T03:58:01;8.50;;;7.35;;
52730;SDS011;38624;53.242;6.974;2023-04-24T04:00:26;7.85;;;7.05;;
52730;SDS011;38624;53.242;6.974;2023-04-24T04:02:52;7.72;;;7.03;;
52730;SDS011;38624;53.242;6.974;2023-04-24T04:05:18;8.07;;;6.97;;
52730;SDS011;38624;53.242;6.974;2023-04-24T04:07:44;8.13;;;6.90;;
52730;SDS011;38624;53.242;6.974;2023-04-24T04:10:10;7.20;;;6.32;;
52730;SDS011;38624;53.242;6.974;2023-04-24T04:12:35;8.20;;;6.88;;
52730;SDS011;38624;53.242;6.974;2023-04-24T04:15:01;8.27;;;6.70;;
52730;SDS011;38624;53.242;6.974;2023-04-24T04:17:27;7.00;;;6.30;;
52730;SDS011;38624;53.242;6.974;2023-04-24T04:19:53;8.70;;;6.57;;
52730;SDS011;38624;53.242;6.974;2023-04-24T04:22:20;9.35;;;6.30;;
52730;SDS011;38624;53.242;6.974;2023-04-24T04:24:45;7.85;;;6.00;;
52730;SDS011;38624;53.242;6.974;2023-04-24T04:27:12;7.40;;;6.70;;
52730;SDS011;38624;53.242;6.974;2023-04-24T04:29:38;7.18;;;6.47;;
52730;SDS011;38624;53.242;6.974;2023-04-24T04:32:05;9.02;;;7.00;;
52730;SDS011;38624;53.242;6.974;2023-04-24T04:34:31;10.50;;;7.28;;
52730;SDS011;38624;53.242;6.974;2023-04-24T04:36:57;7.95;;;7.15;;
52730;SDS011;38624;53.242;6.974;2023-04-24T04:39:27;8.43;;;7.40;;
52730;SDS011;38624;53.242;6.974;2023-04-24T04:41:53;7.72;;;7.00;;
52730;SDS011;38624;53.242;6.974;2023-04-24T04:44:19;8.18;;;7.38;;
52730;SDS011;38624;53.242;6.974;2023-04-24T04:46:45;9.50;;;7.70;;
52730;SDS011;38624;53.242;6.974;2023-04-24T04:49:11;12.82;;;7.63;;
52730;SDS011;38624;53.242;6.974;2023-04-24T04:51:36;10.98;;;7.78;;
52730;SDS011;38624;53.242;6.974;2023-04-24T04:54:02;8.57;;;7.68;;
52730;SDS011;38624;53.242;6.974;2023-04-24T04:56:28;10.27;;;7.85;;
52730;SDS011;38624;53.242;6.974;2023-04-24T04:58:53;8.05;;;7.25;;
52730;SDS011;38624;53.242;6.974;2023-04-24T05:01:19;9.20;;;7.47;;
52730;SDS011;38624;53.242;6.974;2023-04-24T05:03:45;8.23;;;7.43;;
52730;SDS011;38624;53.242;6.974;2023-04-24T05:06:10;8.45;;;7.50;;
52730;SDS011;38624;53.242;6.974;2023-04-24T05:08:36;8.52;;;7.38;;
52730;SDS011;38624;53.242;6.974;2023-04-24T05:11:01;7.90;;;7.10;;
52730;SDS011;38624;53.242;6.974;2023-04-24T05:13:27;10.52;;;6.75;;
52730;SDS011;38624;53.242;6.974;2023-04-24T05:15:53;7.35;;;6.60;;
52730;SDS011;38624;53.242;6.974;2023-04-24T05:18:19;8.07;;;6.63;;
52730;SDS011;38624;53.242;6.974;2023-04-24T05:20:44;9.50;;;7.03;;
52730;SDS011;38624;53.242;6.974;2023-04-24T05:23:10;8.30;;;6.18;;
52730;SDS011;38624;53.242;6.974;2023-04-24T05:25:36;6.65;;;5.95;;
52730;SDS011;38624;53.242;6.974;2023-04-24T05:28:04;6.75;;;6.05;;
52730;SDS011;38624;53.242;6.974;2023-04-24T05:30:30;6.63;;;5.43;;
52730;SDS011;38624;53.242;6.974;2023-04-24T05:32:55;11.38;;;5.70;;
52730;SDS011;38624;53.242;6.974;2023-04-24T05:35:21;6.70;;;5.60;;
52730;SDS011;38624;53.242;6.974;2023-04-24T05:37:47;7.22;;;5.18;;
52730;SDS011;38624;53.242;6.974;2023-04-24T05:40:12;5.90;;;5.28;;
52730;SDS011;38624;53.242;6.974;2023-04-24T05:42:38;9.90;;;5.40;;
52730;SDS011;38624;53.242;6.974;2023-04-24T05:45:04;11.88;;;5.15;;
52730;SDS011;38624;53.242;6.974;2023-04-24T05:47:30;9.18;;;5.15;;
52730;SDS011;38624;53.242;6.974;2023-04-24T05:49:56;8.50;;;4.47;;
52730;SDS011;38624;53.242;6.974;2023-04-24T05:52:21;6.70;;;4.65;;
52730;SDS011;38624;53.242;6.974;2023-04-24T05:54:47;6.07;;;4.43;;
52730;SDS011;38624;53.242;6.974;2023-04-24T05:57:13;6.63;;;4.20;;
52730;SDS011;38624;53.242;6.974;2023-04-24T05:59:40;8.73;;;4.53;;
52730;SDS011;38624;53.242;6.974;2023-04-24T06:04:32;9.05;;;5.75;;
52730;SDS011;38624;53.242;6.974;2023-04-24T06:06:58;8.57;;;5.68;;
52730;SDS011;38624;53.242;6.974;2023-04-24T06:09:24;12.07;;;5.87;;
52730;SDS011;38624;53.242;6.974;2023-04-24T06:11:50;9.73;;;5.70;;
52730;SDS011;38624;53.242;6.974;2023-04-24T06:14:20;9.02;;;5.75;;
52730;SDS011;38624;53.242;6.974;2023-04-24T06:16:46;7.97;;;5.78;;
52730;SDS011;38624;53.242;6.974;2023-04-24T06:19:11;6.90;;;5.30;;
52730;SDS011;38624;53.242;6.974;2023-04-24T06:21:37;6.60;;;5.03;;
52730;SDS011;38624;53.242;6.974;2023-04-24T06:24:03;6.00;;;4.53;;
52730;SDS011;38624;53.242;6.974;2023-04-24T06:26:29;6.55;;;4.65;;
52730;SDS011;38624;53.242;6.974;2023-04-24T06:28:55;6.37;;;4.60;;
52730;SDS011;38624;53.242;6.974;2023-04-24T06:31:21;6.07;;;3.85;;
52730;SDS011;38624;53.242;6.974;2023-04-24T06:33:48;4.97;;;3.83;;
52730;SDS011;38624;53.242;6.974;2023-04-24T06:36:14;4.63;;;3.92;;
52730;SDS011;38624;53.242;6.974;2023-04-24T06:38:40;5.47;;;3.63;;
52730;SDS011;38624;53.242;6.974;2023-04-24T06:41:06;4.25;;;3.40;;
52730;SDS011;38624;53.242;6.974;2023-04-24T06:43:32;6.18;;;3.60;;
52730;SDS011;38624;53.242;6.974;2023-04-24T06:45:58;4.95;;;3.90;;
52730;SDS011;38624;53.242;6.974;2023-04-24T06:48:24;6.22;;;3.67;;
52730;SDS011;38624;53.242;6.974;2023-04-24T06:50:50;4.88;;;3.53;;
52730;SDS011;38624;53.242;6.974;2023-04-24T06:53:16;3.72;;;3.10;;
52730;SDS011;38624;53.242;6.974;2023-04-24T06:55:42;4.03;;;3.50;;
52730;SDS011;38624;53.242;6.974;2023-04-24T07:00:35;4.45;;;3.35;;
52730;SDS011;38624;53.242;6.974;2023-04-24T07:03:01;4.85;;;3.70;;
52730;SDS011;38624;53.242;6.974;2023-04-24T07:05:27;6.43;;;3.50;;
52730;SDS011;38624;53.242;6.974;2023-04-24T07:07:54;5.07;;;3.80;;
52730;SDS011;38624;53.242;6.974;2023-04-24T07:10:20;3.78;;;3.00;;
52730;SDS011;38624;53.242;6.974;2023-04-24T07:12:46;6.47;;;3.33;;
52730;SDS011;38624;53.242;6.974;2023-04-24T07:15:12;4.13;;;3.17;;
52730;SDS011;38624;53.242;6.974;2023-04-24T07:17:38;3.60;;;2.90;;
52730;SDS011;38624;53.242;6.974;2023-04-24T07:20:07;4.22;;;3.25;;
52730;SDS011;38624;53.242;6.974;2023-04-24T07:22:35;4.28;;;3.28;;
52730;SDS011;38624;53.242;6.974;2023-04-24T07:25:02;4.65;;;3.70;;
52730;SDS011;38624;53.242;6.974;2023-04-24T07:27:28;5.47;;;4.07;;
52730;SDS011;38624;53.242;6.974;2023-04-24T07:29:54;7.43;;;4.90;;
52730;SDS011;38624;53.242;6.974;2023-04-24T07:32:19;9.75;;;6.10;;
52730;SDS011;38624;53.242;6.974;2023-04-24T07:34:45;10.20;;;5.75;;
52730;SDS011;38624;53.242;6.974;2023-04-24T07:37:11;6.47;;;5.18;;
52730;SDS011;38624;53.242;6.974;2023-04-24T07:39:36;5.88;;;4.75;;
52730;SDS011;38624;53.242;6.974;2023-04-24T07:42:02;6.38;;;4.40;;
52730;SDS011;38624;53.242;6.974;2023-04-24T07:44:28;5.80;;;4.25;;
52730;SDS011;38624;53.242;6.974;2023-04-24T07:46:54;7.85;;;5.05;;
52730;SDS011;38624;53.242;6.974;2023-04-24T07:49:20;4.53;;;3.45;;
52730;SDS011;38624;53.242;6.974;2023-04-24T07:51:46;4.88;;;4.00;;
52730;SDS011;38624;53.242;6.974;2023-04-24T07:54:12;6.97;;;3.92;;
52730;SDS011;38624;53.242;6.974;2023-04-24T07:56:38;3.63;;;2.90;;
52730;SDS011;38624;53.242;6.974;2023-04-24T07:59:04;6.70;;;3.55;;
52730;SDS011;38624;53.242;6.974;2023-04-24T08:01:30;5.22;;;3.60;;
52730;SDS011;38624;53.242;6.974;2023-04-24T08:03:56;4.85;;;3.67;;
52730;SDS011;38624;53.242;6.974;2023-04-24T08:06:21;6.20;;;3.88;;
52730;SDS011;38624;53.242;6.974;2023-04-24T08:08:47;4.67;;;3.93;;
52730;SDS011;38624;53.242;6.974;2023-04-24T08:11:13;4.80;;;4.22;;
52730;SDS011;38624;53.242;6.974;2023-04-24T08:13:39;5.05;;;4.40;;
52730;SDS011;38624;53.242;6.974;2023-04-24T08:16:04;7.72;;;4.47;;
52730;SDS011;38624;53.242;6.974;2023-04-24T08:18:30;6.43;;;3.90;;
52730;SDS011;38624;53.242;6.974;2023-04-24T08:20:56;6.23;;;3.57;;
52730;SDS011;38624;53.242;6.974;2023-04-24T08:23:26;5.72;;;3.78;;
52730;SDS011;38624;53.242;6.974;2023-04-24T08:25:52;7.40;;;3.53;;
52730;SDS011;38624;53.242;6.974;2023-04-24T08:28:17;3.20;;;2.40;;
52730;SDS011;38624;53.242;6.974;2023-04-24T08:30:45;5.05;;;2.72;;
52730;SDS011;38624;53.242;6.974;2023-04-24T08:33:12;7.55;;;3.05;;
52730;SDS011;38624;53.242;6.974;2023-04-24T08:35:38;6.63;;;3.72;;
52730;SDS011;38624;53.242;6.974;2023-04-24T08:38:04;6.25;;;3.83;;
52730;SDS011;38624;53.242;6.974;2023-04-24T08:40:30;7.80;;;4.15;;
52730;SDS011;38624;53.242;6.974;2023-04-24T08:43:00;8.88;;;4.97;;
52730;SDS011;38624;53.242;6.974;2023-04-24T08:45:26;9.05;;;5.07;;
52730;SDS011;38624;53.242;6.974;2023-04-24T08:47:52;11.55;;;5.68;;
52730;SDS011;38624;53.242;6.974;2023-04-24T08:50:20;13.25;;;5.03;;
52730;SDS011;38624;53.242;6.974;2023-04-24T08:52:50;8.15;;;5.15;;
52730;SDS011;38624;53.242;6.974;2023-04-24T08:55:18;10.25;;;5.53;;
52730;SDS011;38624;53.242;6.974;2023-04-24T09:00:15;8.45;;;5.63;;
52730;SDS011;38624;53.242;6.974;2023-04-24T09:02:42;15.20;;;6.65;;
52730;SDS011;38624;53.242;6.974;2023-04-24T09:07:35;19.23;;;10.20;;
52730;SDS011;38624;53.242;6.974;2023-04-24T09:10:03;24.65;;;14.23;;
52730;SDS011;38624;53.242;6.974;2023-04-24T09:12:30;25.85;;;14.15;;
52730;SDS011;38624;53.242;6.974;2023-04-24T09:14:56;25.33;;;14.75;;
52730;SDS011;38624;53.242;6.974;2023-04-24T09:17:22;28.70;;;15.85;;
52730;SDS011;38624;53.242;6.974;2023-04-24T09:19:51;21.85;;;13.30;;
52730;SDS011;38624;53.242;6.974;2023-04-24T09:22:17;24.73;;;14.77;;
52730;SDS011;38624;53.242;6.974;2023-04-24T09:24:44;19.75;;;13.10;;
52730;SDS011;38624;53.242;6.974;2023-04-24T09:27:11;25.05;;;14.55;;
52730;SDS011;38624;53.242;6.974;2023-04-24T09:29:53;24.30;;;13.98;;
52730;SDS011;38624;53.242;6.974;2023-04-24T09:32:21;23.30;;;13.63;;
52730;SDS011;38624;53.242;6.974;2023-04-24T09:34:47;26.02;;;14.52;;
52730;SDS011;38624;53.242;6.974;2023-04-24T09:37:29;23.00;;;14.65;;
52730;SDS011;38624;53.242;6.974;2023-04-24T09:42:45;22.73;;;13.57;;
52730;SDS011;38624;53.242;6.974;2023-04-24T09:45:11;25.90;;;14.00;;
52730;SDS011;38624;53.242;6.974;2023-04-24T09:47:38;25.70;;;13.55;;
52730;SDS011;38624;53.242;6.974;2023-04-24T09:50:14;26.50;;;12.77;;
52730;SDS011;38624;53.242;6.974;2023-04-24T09:52:45;21.45;;;13.02;;
52730;SDS011;38624;53.242;6.974;2023-04-24T09:55:19;20.95;;;12.90;;
52730;SDS011;38624;53.242;6.974;2023-04-24T10:00:22;21.45;;;11.75;;
52730;SDS011;38624;53.242;6.974;2023-04-24T10:02:55;20.75;;;11.93;;
52730;SDS011;38624;53.242;6.974;2023-04-24T10:05:35;18.77;;;11.05;;
52730;SDS011;38624;53.242;6.974;2023-04-24T10:08:06;17.08;;;10.98;;
52730;SDS011;38624;53.242;6.974;2023-04-24T10:10:34;21.58;;;11.20;;
52730;SDS011;38624;53.242;6.974;2023-04-24T10:13:03;17.48;;;11.48;;
52730;SDS011;38624;53.242;6.974;2023-04-24T10:15:29;19.98;;;11.63;;
52730;SDS011;38624;53.242;6.974;2023-04-24T10:17:55;19.98;;;11.50;;
52730;SDS011;38624;53.242;6.974;2023-04-24T10:20:24;20.58;;;11.57;;
52730;SDS011;38624;53.242;6.974;2023-04-24T10:22:52;18.60;;;10.02;;
52730;SDS011;38624;53.242;6.974;2023-04-24T10:27:45;15.25;;;9.27;;
52730;SDS011;38624;53.242;6.974;2023-04-24T10:30:12;21.20;;;10.27;;
52730;SDS011;38624;53.242;6.974;2023-04-24T10:32:39;19.55;;;11.52;;
52730;SDS011;38624;53.242;6.974;2023-04-24T10:35:08;17.00;;;10.27;;
52730;SDS011;38624;53.242;6.974;2023-04-24T10:37:40;17.65;;;8.75;;
52730;SDS011;38624;53.242;6.974;2023-04-24T10:40:11;19.20;;;8.40;;
52730;SDS011;38624;53.242;6.974;2023-04-24T10:42:43;19.92;;;8.20;;
52730;SDS011;38624;53.242;6.974;2023-04-24T10:45:17;18.20;;;7.57;;
52730;SDS011;38624;53.242;6.974;2023-04-24T10:47:50;15.95;;;7.18;;
52730;SDS011;38624;53.242;6.974;2023-04-24T10:50:29;16.70;;;6.35;;
52730;SDS011;38624;53.242;6.974;2023-04-24T10:53:07;19.13;;;6.50;;
52730;SDS011;38624;53.242;6.974;2023-04-24T10:58:16;19.27;;;6.90;;
52730;SDS011;38624;53.242;6.974;2023-04-24T11:00:57;11.13;;;5.68;;
52730;SDS011;38624;53.242;6.974;2023-04-24T11:05:58;12.35;;;5.22;;
52730;SDS011;38624;53.242;6.974;2023-04-24T11:08:38;10.93;;;4.68;;
52730;SDS011;38624;53.242;6.974;2023-04-24T11:11:09;11.80;;;4.88;;
52730;SDS011;38624;53.242;6.974;2023-04-24T11:24:26;12.02;;;4.53;;
52730;SDS011;38624;53.242;6.974;2023-04-24T11:30:17;11.55;;;4.10;;
52730;SDS011;38624;53.242;6.974;2023-04-24T11:35:14;9.38;;;4.00;;
52730;SDS011;38624;53.242;6.974;2023-04-24T11:37:46;7.32;;;3.10;;
52730;SDS011;38624;53.242;6.974;2023-04-24T11:40:14;8.43;;;3.38;;
52730;SDS011;38624;53.242;6.974;2023-04-24T11:42:42;8.52;;;3.10;;
52730;SDS011;38624;53.242;6.974;2023-04-24T11:45:13;7.70;;;2.75;;
52730;SDS011;38624;53.242;6.974;2023-04-24T11:47:40;6.47;;;2.85;;
52730;SDS011;38624;53.242;6.974;2023-04-24T11:50:08;10.93;;;3.00;;
52730;SDS011;38624;53.242;6.974;2023-04-24T11:52:39;10.00;;;2.60;;
52730;SDS011;38624;53.242;6.974;2023-04-24T11:57:45;4.88;;;2.10;;
52730;SDS011;38624;53.242;6.974;2023-04-24T12:00:20;7.88;;;2.30;;
52730;SDS011;38624;53.242;6.974;2023-04-24T12:02:47;6.10;;;2.45;;
52730;SDS011;38624;53.242;6.974;2023-04-24T12:07:50;7.53;;;2.13;;
52730;SDS011;38624;53.242;6.974;2023-04-24T12:10:23;10.30;;;2.47;;
52730;SDS011;38624;53.242;6.974;2023-04-24T12:12:51;5.75;;;1.98;;
52730;SDS011;38624;53.242;6.974;2023-04-24T12:15:18;7.45;;;2.38;;
52730;SDS011;38624;53.242;6.974;2023-04-24T12:17:45;7.28;;;2.30;;
52730;SDS011;38624;53.242;6.974;2023-04-24T12:20:11;4.73;;;1.90;;
52730;SDS011;38624;53.242;6.974;2023-04-24T12:25:13;9.00;;;2.28;;
52730;SDS011;38624;53.242;6.974;2023-04-24T12:27:40;9.48;;;2.30;;
52730;SDS011;38624;53.242;6.974;2023-04-24T12:30:09;8.18;;;2.10;;
52730;SDS011;38624;53.242;6.974;2023-04-24T12:32:40;5.03;;;1.90;;
52730;SDS011;38624;53.242;6.974;2023-04-24T12:35:20;7.28;;;2.15;;
52730;SDS011;38624;53.242;6.974;2023-04-24T12:37:46;8.25;;;2.05;;
52730;SDS011;38624;53.242;6.974;2023-04-24T12:40:12;11.68;;;2.50;;
52730;SDS011;38624;53.242;6.974;2023-04-24T12:42:42;7.40;;;2.42;;
52730;SDS011;38624;53.242;6.974;2023-04-24T12:45:10;6.03;;;1.80;;
52730;SDS011;38624;53.242;6.974;2023-04-24T12:50:03;6.30;;;2.13;;
52730;SDS011;38624;53.242;6.974;2023-04-24T12:52:29;8.50;;;2.25;;
52730;SDS011;38624;53.242;6.974;2023-04-24T12:54:56;7.30;;;2.13;;
52730;SDS011;38624;53.242;6.974;2023-04-24T12:57:24;8.88;;;2.05;;
52730;SDS011;38624;53.242;6.974;2023-04-24T12:59:51;8.02;;;2.10;;
52730;SDS011;38624;53.242;6.974;2023-04-24T13:02:22;9.45;;;2.47;;
52730;SDS011;38624;53.242;6.974;2023-04-24T13:04:48;12.45;;;2.10;;
52730;SDS011;38624;53.242;6.974;2023-04-24T13:07:14;8.20;;;2.15;;
52730;SDS011;38624;53.242;6.974;2023-04-24T13:09:41;9.93;;;3.10;;
52730;SDS011;38624;53.242;6.974;2023-04-24T13:12:08;5.32;;;1.80;;
52730;SDS011;38624;53.242;6.974;2023-04-24T13:14:35;11.90;;;2.25;;
52730;SDS011;38624;53.242;6.974;2023-04-24T13:17:01;6.47;;;2.13;;
52730;SDS011;38624;53.242;6.974;2023-04-24T13:19:27;5.25;;;1.70;;
52730;SDS011;38624;53.242;6.974;2023-04-24T13:21:54;8.07;;;1.65;;
52730;SDS011;38624;53.242;6.974;2023-04-24T13:24:22;4.60;;;1.60;;
52730;SDS011;38624;53.242;6.974;2023-04-24T13:26:50;5.90;;;1.73;;
52730;SDS011;38624;53.242;6.974;2023-04-24T13:29:16;3.65;;;1.30;;
52730;SDS011;38624;53.242;6.974;2023-04-24T13:31:42;6.07;;;1.70;;
52730;SDS011;38624;53.242;6.974;2023-04-24T13:34:07;5.40;;;1.40;;
52730;SDS011;38624;53.242;6.974;2023-04-24T13:36:33;4.97;;;1.92;;
52730;SDS011;38624;53.242;6.974;2023-04-24T13:38:59;5.28;;;1.73;;
52730;SDS011;38624;53.242;6.974;2023-04-24T13:41:24;4.97;;;1.50;;
52730;SDS011;38624;53.242;6.974;2023-04-24T13:43:50;9.07;;;1.50;;
52730;SDS011;38624;53.242;6.974;2023-04-24T13:46:16;8.38;;;1.75;;
52730;SDS011;38624;53.242;6.974;2023-04-24T13:48:42;8.07;;;1.58;;
52730;SDS011;38624;53.242;6.974;2023-04-24T13:51:07;3.35;;;1.40;;
52730;SDS011;38624;53.242;6.974;2023-04-24T13:53:33;4.78;;;1.13;;
52730;SDS011;38624;53.242;6.974;2023-04-24T13:56:03;5.70;;;1.23;;
52730;SDS011;38624;53.242;6.974;2023-04-24T13:58:29;4.32;;;1.02;;
52730;SDS011;38624;53.242;6.974;2023-04-24T14:00:54;5.03;;;1.20;;
52730;SDS011;38624;53.242;6.974;2023-04-24T14:03:20;6.32;;;1.55;;
52730;SDS011;38624;53.242;6.974;2023-04-24T14:05:46;6.18;;;1.50;;
52730;SDS011;38624;53.242;6.974;2023-04-24T14:08:11;5.60;;;1.40;;
52730;SDS011;38624;53.242;6.974;2023-04-24T14:10:37;7.15;;;1.38;;
52730;SDS011;38624;53.242;6.974;2023-04-24T14:13:03;4.88;;;1.77;;
52730;SDS011;38624;53.242;6.974;2023-04-24T14:15:28;5.32;;;1.42;;
52730;SDS011;38624;53.242;6.974;2023-04-24T14:17:54;4.93;;;1.30;;
52730;SDS011;38624;53.242;6.974;2023-04-24T14:20:20;3.50;;;0.90;;
52730;SDS011;38624;53.242;6.974;2023-04-24T14:22:46;3.97;;;1.20;;
52730;SDS011;38624;53.242;6.974;2023-04-24T14:25:12;2.67;;;0.90;;
52730;SDS011;38624;53.242;6.974;2023-04-24T14:27:38;2.10;;;1.00;;
52730;SDS011;38624;53.242;6.974;2023-04-24T14:32:31;5.95;;;1.15;;
52730;SDS011;38624;53.242;6.974;2023-04-24T14:34:56;4.82;;;1.02;;
52730;SDS011;38624;53.242;6.974;2023-04-24T14:37:22;2.70;;;1.30;;
52730;SDS011;38624;53.242;6.974;2023-04-24T14:39:48;3.90;;;1.80;;
52730;SDS011;38624;53.242;6.974;2023-04-24T14:42:13;4.72;;;1.67;;
52730;SDS011;38624;53.242;6.974;2023-04-24T14:44:39;7.53;;;2.30;;
52730;SDS011;38624;53.242;6.974;2023-04-24T14:47:05;8.30;;;2.53;;
52730;SDS011;38624;53.242;6.974;2023-04-24T14:49:30;10.95;;;2.58;;
52730;SDS011;38624;53.242;6.974;2023-04-24T14:51:56;6.10;;;2.58;;
52730;SDS011;38624;53.242;6.974;2023-04-24T14:54:22;8.38;;;2.85;;
52730;SDS011;38624;53.242;6.974;2023-04-24T14:56:48;6.57;;;2.60;;
52730;SDS011;38624;53.242;6.974;2023-04-24T14:59:14;11.65;;;2.80;;
52730;SDS011;38624;53.242;6.974;2023-04-24T15:01:40;12.50;;;2.90;;
52730;SDS011;38624;53.242;6.974;2023-04-24T15:04:06;10.25;;;3.35;;
52730;SDS011;38624;53.242;6.974;2023-04-24T15:06:31;13.48;;;3.72;;
52730;SDS011;38624;53.242;6.974;2023-04-24T15:08:57;12.47;;;3.73;;
52730;SDS011;38624;53.242;6.974;2023-04-24T15:11:23;16.60;;;4.07;;
52730;SDS011;38624;53.242;6.974;2023-04-24T15:13:49;9.93;;;3.80;;
52730;SDS011;38624;53.242;6.974;2023-04-24T15:16:15;13.23;;;4.47;;
52730;SDS011;38624;53.242;6.974;2023-04-24T15:18:41;12.85;;;4.22;;
52730;SDS011;38624;53.242;6.974;2023-04-24T15:21:07;20.35;;;5.25;;
52730;SDS011;38624;53.242;6.974;2023-04-24T15:23:32;18.85;;;4.60;;
52730;SDS011;38624;53.242;6.974;2023-04-24T15:25:58;21.35;;;4.38;;
52730;SDS011;38624;53.242;6.974;2023-04-24T15:28:24;12.43;;;4.20;;
52730;SDS011;38624;53.242;6.974;2023-04-24T15:30:50;15.40;;;4.80;;
52730;SDS011;38624;53.242;6.974;2023-04-24T15:33:16;15.77;;;4.38;;